createdAt,value
2023-05-21T00:00:29.082Z,9.418349
2023-05-21T00:01:29.067Z,9.418302
2023-05-21T00:02:29.143Z,9.418235
2023-05-21T00:03:29.124Z,9.418312
2023-05-21T00:04:29.070Z,9.418349
2023-05-21T00:05:29.057Z,9.418331
2023-05-21T00:06:29.127Z,9.418248
2023-05-21T00:07:29.062Z,9.418260
2023-05-21T00:08:29.024Z,9.418306
2023-05-21T00:09:29.027Z,9.418253
2023-05-21T00:10:29.058Z,9.418244
2023-05-21T00:11:28.990Z,9.418250
2023-05-21T00:12:29.015Z,9.418260
2023-05-21T00:13:28.997Z,9.418330
2023-05-21T00:14:28.973Z,9.418382
2023-05-21T00:15:28.975Z,9.418325
2023-05-21T00:16:29.058Z,9.418280
2023-05-21T00:17:28.989Z,9.418277
2023-05-21T00:18:28.957Z,9.418281
2023-05-21T00:19:29.006Z,9.418308
2023-05-21T00:20:28.934Z,9.418296
2023-05-21T00:21:28.933Z,9.418321
2023-05-21T00:22:28.924Z,9.418294
2023-05-21T00:23:28.921Z,9.418215
2023-05-21T00:24:28.901Z,9.418262
2023-05-21T00:25:28.904Z,9.418272
2023-05-21T00:26:28.914Z,9.418283
2023-05-21T00:27:28.905Z,9.418315
2023-05-21T00:28:28.880Z,9.418376
2023-05-21T00:29:28.872Z,9.418286
2023-05-21T00:30:28.886Z,9.418334
2023-05-21T00:31:28.907Z,9.418303
2023-05-21T00:32:28.878Z,9.418268
2023-05-21T00:33:28.839Z,9.418257
2023-05-21T00:34:28.833Z,9.418250
2023-05-21T00:35:28.833Z,9.418247
2023-05-21T00:36:28.848Z,9.418235
2023-05-21T00:37:28.819Z,9.418204
2023-05-21T00:38:28.815Z,9.418236
2023-05-21T00:39:28.805Z,9.418196
2023-05-21T00:40:28.810Z,9.418153
2023-05-21T00:41:28.802Z,9.418185
2023-05-21T00:42:28.790Z,9.418195
2023-05-21T00:43:28.800Z,9.418251
2023-05-21T00:44:28.764Z,9.418228
2023-05-21T00:45:28.776Z,9.418153
2023-05-21T00:46:28.799Z,9.418216
2023-05-21T00:48:28.749Z,9.418243
2023-05-21T00:49:28.732Z,9.418435
2023-05-21T00:50:28.735Z,9.418414
2023-05-21T00:51:28.726Z,9.418272
2023-05-21T00:52:28.711Z,9.418340
2023-05-21T00:53:28.702Z,9.418252
2023-05-21T00:54:28.725Z,9.418354
2023-05-21T00:55:28.696Z,9.418519
2023-05-21T00:56:28.694Z,9.418610
2023-05-21T00:57:28.687Z,9.418605
2023-05-21T00:58:28.670Z,9.418466
2023-05-21T00:59:28.667Z,9.418506
2023-05-21T01:00:28.655Z,9.418453
2023-05-21T01:01:28.743Z,9.418627
2023-05-21T01:02:28.740Z,9.418477
2023-05-21T01:03:28.747Z,9.418285
2023-05-21T01:04:28.638Z,9.418472
2023-05-21T01:05:28.637Z,9.418418
2023-05-21T01:06:28.610Z,9.418182
2023-05-21T01:07:28.647Z,9.418328
2023-05-21T01:08:28.610Z,9.418265
2023-05-21T01:09:28.611Z,9.418406
2023-05-21T01:10:28.612Z,9.418451
2023-05-21T01:11:28.588Z,9.418443
2023-05-21T01:12:28.575Z,9.418420
2023-05-21T01:13:28.579Z,9.418461
2023-05-21T01:14:28.571Z,9.418389
2023-05-21T01:15:28.566Z,9.418349
2023-05-21T01:16:28.566Z,9.418474
2023-05-21T01:17:28.587Z,9.418530
2023-05-21T01:18:28.568Z,9.418575
2023-05-21T01:19:28.557Z,9.418529
2023-05-21T01:20:28.574Z,9.418339
2023-05-21T01:21:28.517Z,9.418328
2023-05-21T01:22:28.543Z,9.418226
2023-05-21T01:23:28.502Z,9.418243
2023-05-21T01:24:28.497Z,9.418347
2023-05-21T01:25:28.509Z,9.418201
2023-05-21T01:26:28.497Z,9.418242
2023-05-21T01:27:28.490Z,9.418232
2023-05-21T01:28:28.480Z,9.418263
2023-05-21T01:29:28.474Z,9.418217
2023-05-21T01:30:28.465Z,9.418190
2023-05-21T01:31:28.498Z,9.418214
2023-05-21T01:32:28.473Z,9.418234
2023-05-21T01:33:28.518Z,9.418231
2023-05-21T01:34:28.427Z,9.418264
2023-05-21T01:35:28.436Z,9.418256
2023-05-21T01:36:28.443Z,9.418290
2023-05-21T01:37:28.427Z,9.418215
2023-05-21T01:38:28.415Z,9.418201
2023-05-21T01:39:28.410Z,9.418291
2023-05-21T01:40:28.400Z,9.418239
2023-05-21T01:41:28.436Z,9.418253
2023-05-21T01:42:28.389Z,9.418186
2023-05-21T01:43:28.388Z,9.418214
2023-05-21T01:44:28.381Z,9.418191
2023-05-21T01:45:28.365Z,9.418290
2023-05-21T01:46:28.442Z,9.418195
2023-05-21T01:47:28.368Z,9.418234
2023-05-21T01:48:28.359Z,9.418230
2023-05-21T01:49:28.349Z,9.418271
2023-05-21T01:50:28.357Z,9.418316
2023-05-21T01:51:28.336Z,9.418264
2023-05-21T01:52:29.329Z,9.418384
2023-05-21T01:53:28.317Z,9.418505
2023-05-21T01:54:28.305Z,9.418307
2023-05-21T01:55:28.314Z,9.418277
2023-05-21T01:56:28.301Z,9.418316
2023-05-21T01:57:28.277Z,9.418268
2023-05-21T01:58:28.289Z,9.418268
2023-05-21T01:59:28.273Z,9.418325
2023-05-21T02:00:28.284Z,9.418359
2023-05-21T02:01:28.285Z,9.418294
2023-05-21T02:02:28.308Z,9.418295
2023-05-21T02:03:28.351Z,9.418338
2023-05-21T02:04:28.234Z,9.418370
2023-05-21T02:05:28.229Z,9.418357
2023-05-21T02:06:28.217Z,9.418391
2023-05-21T02:07:28.215Z,9.418371
2023-05-21T02:08:28.225Z,9.418351
2023-05-21T02:09:28.199Z,9.418454
2023-05-21T02:10:28.244Z,9.418337
2023-05-21T02:11:28.199Z,9.418318
2023-05-21T02:12:28.190Z,9.418312
2023-05-21T02:13:28.191Z,9.418370
2023-05-21T02:14:28.206Z,9.418274
2023-05-21T02:15:28.167Z,9.418320
2023-05-21T02:16:28.176Z,9.418360
2023-05-21T02:17:28.171Z,9.418324
2023-05-21T02:18:28.166Z,9.418333
2023-05-21T02:19:28.261Z,9.418288
2023-05-21T02:20:28.134Z,9.418343
2023-05-21T02:21:28.138Z,9.418301
2023-05-21T02:22:28.133Z,9.418255
2023-05-21T02:23:28.150Z,9.418243
2023-05-21T02:24:28.114Z,9.418235
2023-05-21T02:25:28.104Z,9.418233
2023-05-21T02:26:28.105Z,9.418270
2023-05-21T02:27:28.096Z,9.418274
2023-05-21T02:28:28.083Z,9.418287
2023-05-21T02:29:28.103Z,9.418330
2023-05-21T02:30:28.098Z,9.418231
2023-05-21T02:31:28.056Z,9.418262
2023-05-21T02:32:28.088Z,9.418304
2023-05-21T02:33:28.075Z,9.418321
2023-05-21T02:34:28.108Z,9.418292
2023-05-21T02:35:28.054Z,9.418260
2023-05-21T02:36:28.033Z,9.418290
2023-05-21T02:37:28.024Z,9.418274
2023-05-21T02:38:28.024Z,9.418251
2023-05-21T02:39:28.009Z,9.418278
2023-05-21T02:40:28.023Z,9.418288
2023-05-21T02:41:28.009Z,9.418205
2023-05-21T02:42:27.992Z,9.418262
2023-05-21T02:43:27.991Z,9.418268
2023-05-21T02:44:28.002Z,9.418266
2023-05-21T02:45:27.979Z,9.418296
2023-05-21T02:46:28.014Z,9.418291
2023-05-21T02:47:27.987Z,9.418286
2023-05-21T02:48:27.971Z,9.418298
2023-05-21T02:49:27.987Z,9.418346
2023-05-21T02:50:27.936Z,9.418348
2023-05-21T02:51:27.956Z,9.418261
2023-05-21T02:52:27.921Z,9.418201
2023-05-21T02:53:28.924Z,9.418239
2023-05-21T02:54:27.934Z,9.418244
2023-05-21T02:55:27.914Z,9.418204
2023-05-21T02:56:27.913Z,9.418218
2023-05-21T02:57:27.903Z,9.418257
2023-05-21T02:58:27.894Z,9.418277
2023-05-21T02:59:27.878Z,9.418170
2023-05-21T03:00:27.873Z,9.418173
2023-05-21T03:01:27.932Z,9.418186
2023-05-21T03:02:27.909Z,9.418250
2023-05-21T03:03:28.077Z,9.418185
2023-05-21T03:04:27.850Z,9.418204
2023-05-21T03:05:27.866Z,9.418244
2023-05-21T03:06:27.839Z,9.418195
2023-05-21T03:07:27.835Z,9.418225
2023-05-21T03:08:27.847Z,9.418240
2023-05-21T03:09:27.825Z,9.418283
2023-05-21T03:10:27.806Z,9.418224
2023-05-21T03:11:27.806Z,9.418217
2023-05-21T03:12:27.812Z,9.418206
2023-05-21T03:13:27.823Z,9.418151
2023-05-21T03:14:27.784Z,9.418204
2023-05-21T03:15:27.821Z,9.418180
2023-05-21T03:16:27.856Z,9.418242
2023-05-21T03:17:27.776Z,9.418221
2023-05-21T03:18:27.795Z,9.418240
2023-05-21T03:19:27.824Z,9.418254
2023-05-21T03:20:27.767Z,9.418203
2023-05-21T03:21:27.754Z,9.418214
2023-05-21T03:22:27.729Z,9.418214
2023-05-21T03:23:27.726Z,9.418232
2023-05-21T03:24:27.729Z,9.418286
2023-05-21T03:25:27.712Z,9.418284
2023-05-21T03:26:27.721Z,9.418191
2023-05-21T03:27:27.710Z,9.418178
2023-05-21T03:28:27.712Z,9.418224
2023-05-21T03:29:27.689Z,9.418213
2023-05-21T03:30:27.696Z,9.418164
2023-05-21T03:31:27.738Z,9.418220
2023-05-21T03:32:27.706Z,9.418225
2023-05-21T03:33:27.678Z,9.418271
2023-05-21T03:34:27.661Z,9.418231
2023-05-21T03:35:27.704Z,9.418351
2023-05-21T03:36:27.649Z,9.418232
2023-05-21T03:37:27.651Z,9.418207
2023-05-21T03:38:27.654Z,9.418214
2023-05-21T03:39:27.639Z,9.418237
2023-05-21T03:40:27.655Z,9.418326
2023-05-21T03:41:27.621Z,9.418254
2023-05-21T03:42:27.628Z,9.418287
2023-05-21T03:43:27.613Z,9.418222
2023-05-21T03:44:27.599Z,9.418145
2023-05-21T03:45:27.628Z,9.418179
2023-05-21T03:46:27.612Z,9.418222
2023-05-21T03:47:28.622Z,9.418220
2023-05-21T03:48:27.595Z,9.418264
2023-05-21T03:49:27.571Z,9.418237
2023-05-21T03:50:27.572Z,9.418308
2023-05-21T03:51:27.599Z,9.418268
2023-05-21T03:52:27.602Z,9.418258
2023-05-21T03:53:27.546Z,9.418213
2023-05-21T03:54:27.550Z,9.418262
2023-05-21T03:55:27.574Z,9.418241
2023-05-21T03:56:27.558Z,9.418267
2023-05-21T03:57:27.523Z,9.418321
2023-05-21T03:58:27.513Z,9.418306
2023-05-21T03:59:27.522Z,9.418235
2023-05-21T04:00:27.501Z,9.418223
2023-05-21T04:01:27.534Z,9.418250
2023-05-21T04:02:27.692Z,9.418263
2023-05-21T04:03:27.646Z,9.418239
2023-05-21T04:04:27.519Z,9.418261
2023-05-21T04:05:27.472Z,9.418239
2023-05-21T04:06:27.496Z,9.418211
2023-05-21T04:07:27.467Z,9.418231
2023-05-21T04:08:27.444Z,9.418275
2023-05-21T04:09:27.451Z,9.418265
2023-05-21T04:10:27.457Z,9.418229
2023-05-21T04:11:27.432Z,9.418253
2023-05-21T04:12:27.448Z,9.418300
2023-05-21T04:13:27.412Z,9.418328
2023-05-21T04:14:27.415Z,9.418385
2023-05-21T04:15:27.406Z,9.418370
2023-05-21T04:16:27.428Z,9.418361
2023-05-21T04:17:27.491Z,9.418345
2023-05-21T04:18:27.390Z,9.418402
2023-05-21T04:19:27.417Z,9.418359
2023-05-21T04:20:27.387Z,9.418490
2023-05-21T04:21:27.375Z,9.418406
2023-05-21T04:22:27.368Z,9.418432
2023-05-21T04:23:27.380Z,9.418357
2023-05-21T04:24:27.342Z,9.418361
2023-05-21T04:25:28.335Z,9.418330
2023-05-21T04:26:27.332Z,9.418350
2023-05-21T04:27:27.341Z,9.418347
2023-05-21T04:28:27.335Z,9.418423
2023-05-21T04:29:27.302Z,9.418389
2023-05-21T04:30:27.317Z,9.418391
2023-05-21T04:31:27.332Z,9.418257
2023-05-21T04:32:27.336Z,9.418229
2023-05-21T04:33:27.310Z,9.418280
2023-05-21T04:34:27.287Z,9.418319
2023-05-21T04:35:27.287Z,9.418311
2023-05-21T04:36:27.255Z,9.418286
2023-05-21T04:37:27.266Z,9.418253
2023-05-21T04:38:27.242Z,9.418241
2023-05-21T04:39:27.235Z,9.418291
2023-05-21T04:40:27.240Z,9.418284
2023-05-21T04:41:27.225Z,9.418299
2023-05-21T04:42:27.227Z,9.418277
2023-05-21T04:43:27.239Z,9.418210
2023-05-21T04:44:27.220Z,9.418250
2023-05-21T04:45:27.186Z,9.418279
2023-05-21T04:46:27.235Z,9.418266
2023-05-21T04:47:27.234Z,9.418380
2023-05-21T04:48:27.296Z,9.418359
2023-05-21T04:49:27.168Z,9.418338
2023-05-21T04:50:27.193Z,9.418349
2023-05-21T04:51:27.154Z,9.418272
2023-05-21T04:52:27.145Z,9.418203
2023-05-21T04:53:27.132Z,9.418221
2023-05-21T04:54:27.135Z,9.418178
2023-05-21T04:55:27.147Z,9.418142
2023-05-21T04:56:27.140Z,9.418276
2023-05-21T04:57:27.108Z,9.418264
2023-05-21T04:58:27.107Z,9.418207
2023-05-21T04:59:27.098Z,9.418225
2023-05-21T05:00:27.092Z,9.418219
2023-05-21T05:01:27.325Z,9.418205
2023-05-21T05:02:27.114Z,9.418264
2023-05-21T05:03:27.148Z,9.418233
2023-05-21T05:04:27.066Z,9.418292
2023-05-21T05:05:27.059Z,9.418262
2023-05-21T05:06:27.073Z,9.418221
2023-05-21T05:07:27.035Z,9.418264
2023-05-21T05:08:27.032Z,9.418267
2023-05-21T05:09:27.034Z,9.418234
2023-05-21T05:10:27.011Z,9.418305
2023-05-21T05:11:27.029Z,9.418280
2023-05-21T05:12:27.034Z,9.418352
2023-05-21T05:13:26.999Z,9.418344
2023-05-21T05:14:26.984Z,9.418334
2023-05-21T05:15:26.983Z,9.418244
2023-05-21T05:16:27.036Z,9.418266
2023-05-21T05:17:27.019Z,9.418246
2023-05-21T05:18:26.957Z,9.418235
2023-05-21T05:19:27.077Z,9.418225
2023-05-21T05:20:26.948Z,9.418253
2023-05-21T05:21:26.953Z,9.418227
2023-05-21T05:22:26.922Z,9.418229
2023-05-21T05:23:26.937Z,9.418241
2023-05-21T05:24:26.919Z,9.418251
2023-05-21T05:25:26.913Z,9.418233
2023-05-21T05:26:26.920Z,9.418256
2023-05-21T05:27:26.890Z,9.418277
2023-05-21T05:28:26.906Z,9.418234
2023-05-21T05:29:26.881Z,9.418289
2023-05-21T05:30:26.894Z,9.418289
2023-05-21T05:31:26.985Z,9.418286
2023-05-21T05:32:26.884Z,9.418244
2023-05-21T05:33:26.836Z,9.418287
2023-05-21T05:34:26.847Z,9.418264
2023-05-21T05:35:26.843Z,9.418292
2023-05-21T05:36:26.843Z,9.418268
2023-05-21T05:37:26.823Z,9.418323
2023-05-21T05:38:26.812Z,9.418287
2023-05-21T05:39:26.805Z,9.418379
2023-05-21T05:40:26.817Z,9.418336
2023-05-21T05:41:26.807Z,9.418279
2023-05-21T05:42:26.791Z,9.418265
2023-05-21T05:43:26.771Z,9.418250
2023-05-21T05:44:26.768Z,9.418329
2023-05-21T05:45:26.798Z,9.418254
2023-05-21T05:46:26.773Z,9.418306
2023-05-21T05:47:26.790Z,9.418273
2023-05-21T05:48:26.744Z,9.418352
2023-05-21T05:49:26.726Z,9.418247
2023-05-21T05:50:26.746Z,9.418264
2023-05-21T05:51:26.714Z,9.418307
2023-05-21T05:52:26.729Z,9.418269
2023-05-21T05:53:26.696Z,9.418283
2023-05-21T05:54:26.700Z,9.418282
2023-05-21T05:55:26.738Z,9.418282
2023-05-21T05:56:26.682Z,9.418220
2023-05-21T05:57:26.693Z,9.418212
2023-05-21T05:58:26.672Z,9.418253
2023-05-21T05:59:26.669Z,9.418219
2023-05-21T06:00:26.646Z,9.418251
2023-05-21T06:01:26.668Z,9.418262
2023-05-21T06:02:26.688Z,9.418253
2023-05-21T06:03:26.753Z,9.418289
2023-05-21T06:04:26.633Z,9.418339
2023-05-21T06:05:26.643Z,9.418282
2023-05-21T06:06:26.619Z,9.418232
2023-05-21T06:07:26.605Z,9.418309
2023-05-21T06:08:26.611Z,9.418300
2023-05-21T06:09:26.612Z,9.418287
2023-05-21T06:10:26.584Z,9.418293
2023-05-21T06:11:26.605Z,9.418278
2023-05-21T06:12:26.568Z,9.418308
2023-05-21T06:13:26.572Z,9.418319
2023-05-21T06:14:26.565Z,9.418262
2023-05-21T06:15:26.576Z,9.418285
2023-05-21T06:16:26.666Z,9.418377
2023-05-21T06:17:26.588Z,9.418314
2023-05-21T06:18:26.545Z,9.418168
2023-05-21T06:19:26.609Z,9.418156
2023-05-21T06:20:26.522Z,9.418216
2023-05-21T06:21:26.538Z,9.418222
2023-05-21T06:22:26.503Z,9.418348
2023-05-21T06:23:26.499Z,9.418281
2023-05-21T06:24:26.494Z,9.418278
2023-05-21T06:25:26.506Z,9.418176
2023-05-21T06:26:26.491Z,9.418198
2023-05-21T06:27:26.474Z,9.418302
2023-05-21T06:28:26.462Z,9.418324
2023-05-21T06:29:26.483Z,9.418322
2023-05-21T06:30:26.476Z,9.418323
2023-05-21T06:31:26.472Z,9.418287
2023-05-21T06:32:26.491Z,9.418248
2023-05-21T06:33:26.550Z,9.418236
2023-05-21T06:34:26.434Z,9.418346
2023-05-21T06:35:26.425Z,9.418427
2023-05-21T06:36:26.437Z,9.418339
2023-05-21T06:37:26.815Z,9.418369
2023-05-21T06:38:27.401Z,9.418324
2023-05-21T06:39:26.395Z,9.418399
2023-05-21T06:40:26.393Z,9.418290
2023-05-21T06:41:26.384Z,9.418248
2023-05-21T06:42:26.381Z,9.418278
2023-05-21T06:43:26.381Z,9.418323
2023-05-21T06:44:26.361Z,9.418328
2023-05-21T06:45:26.381Z,9.418285
2023-05-21T06:46:26.417Z,9.418304
2023-05-21T06:47:26.367Z,9.418294
2023-05-21T06:48:26.330Z,9.418346
2023-05-21T06:49:26.324Z,9.418326
2023-05-21T06:50:26.327Z,9.418335
2023-05-21T06:51:27.345Z,9.418286
2023-05-21T06:52:26.311Z,9.418345
2023-05-21T06:53:26.335Z,9.418344
2023-05-21T06:54:27.116Z,9.418336
2023-05-21T06:55:27.288Z,9.418310
2023-05-21T06:56:26.316Z,9.418288
2023-05-21T06:57:26.287Z,9.418363
2023-05-21T06:58:26.269Z,9.418336
2023-05-21T06:59:26.260Z,9.418352
2023-05-21T07:00:26.259Z,9.418342
2023-05-21T07:01:26.379Z,9.418308
2023-05-21T07:02:26.374Z,9.418306
2023-05-21T07:03:26.307Z,9.418309
2023-05-21T07:04:26.226Z,9.418270
2023-05-21T07:05:26.235Z,9.418323
2023-05-21T07:06:26.308Z,9.418308
2023-05-21T07:07:26.223Z,9.418298
2023-05-21T07:08:26.209Z,9.418309
2023-05-21T07:09:26.221Z,9.418337
2023-05-21T07:10:26.206Z,9.418351
2023-05-21T07:11:26.248Z,9.418361
2023-05-21T07:12:26.175Z,9.418269
2023-05-21T07:13:26.178Z,9.418300
2023-05-21T07:14:26.456Z,9.418391
2023-05-21T07:15:26.162Z,9.418389
2023-05-21T07:16:26.179Z,9.418335
2023-05-21T07:17:26.161Z,9.418277
2023-05-21T07:18:26.134Z,9.418190
2023-05-21T07:19:26.185Z,9.418252
2023-05-21T07:20:26.159Z,9.418287
2023-05-21T07:21:26.115Z,9.418200
2023-05-21T07:22:28.066Z,9.418299
2023-05-21T07:23:27.116Z,9.418315
2023-05-21T07:24:26.080Z,9.418333
2023-05-21T07:25:26.118Z,9.418240
2023-05-21T07:26:26.085Z,9.418038
2023-05-21T07:27:26.430Z,9.418182
2023-05-21T07:28:26.062Z,9.418233
2023-05-21T07:29:26.058Z,9.418332
2023-05-21T07:30:26.056Z,9.418108
2023-05-21T07:31:26.110Z,9.418009
2023-05-21T07:32:26.042Z,9.417899
2023-05-21T07:33:26.031Z,9.418148
2023-05-21T07:34:26.049Z,9.418133
2023-05-21T07:35:26.021Z,9.418399
2023-05-21T07:36:26.010Z,9.418427
2023-05-21T07:37:26.049Z,9.418305
2023-05-21T07:38:26.007Z,9.418438
2023-05-21T07:39:25.986Z,9.418325
2023-05-21T07:40:25.982Z,9.418456
2023-05-21T07:41:25.999Z,9.418399
2023-05-21T07:42:25.968Z,9.418340
2023-05-21T07:43:25.960Z,9.418267
2023-05-21T07:44:25.963Z,9.418277
2023-05-21T07:45:25.955Z,9.418077
2023-05-21T07:46:25.987Z,9.418178
2023-05-21T07:47:26.034Z,9.418157
2023-05-21T07:48:25.932Z,9.418306
2023-05-21T07:49:25.928Z,9.418310
2023-05-21T07:50:25.917Z,9.418353
2023-05-21T07:51:25.962Z,9.418399
2023-05-21T07:52:25.927Z,9.418312
2023-05-21T07:53:25.893Z,9.418368
2023-05-21T07:54:25.897Z,9.418337
2023-05-21T07:55:25.916Z,9.418283
2023-05-21T07:56:25.910Z,9.418363
2023-05-21T07:57:25.879Z,9.418480
2023-05-21T07:58:25.868Z,9.418420
2023-05-21T07:59:25.873Z,9.418252
2023-05-21T08:00:25.857Z,9.418267
2023-05-21T08:01:25.894Z,9.418215
2023-05-21T08:02:25.966Z,9.418266
2023-05-21T08:03:25.923Z,9.418237
2023-05-21T08:04:26.017Z,9.418313
2023-05-21T08:05:25.852Z,9.418258
2023-05-21T08:06:25.827Z,9.418222
2023-05-21T08:07:25.822Z,9.418244
2023-05-21T08:08:25.815Z,9.418274
2023-05-21T08:09:25.824Z,9.418308
2023-05-21T08:10:25.803Z,9.418283
2023-05-21T08:11:26.433Z,9.418314
2023-05-21T08:12:25.800Z,9.418384
2023-05-21T08:13:26.010Z,9.418321
2023-05-21T08:14:25.779Z,9.418340
2023-05-21T08:15:25.777Z,9.418385
2023-05-21T08:16:25.843Z,9.418286
2023-05-21T08:17:25.789Z,9.418285
2023-05-21T08:18:25.868Z,9.418317
2023-05-21T08:19:25.804Z,9.418284
2023-05-21T08:20:25.732Z,9.418273
2023-05-21T08:21:25.726Z,9.418257
2023-05-21T08:22:25.728Z,9.418226
2023-05-21T08:23:25.717Z,9.418285
2023-05-21T08:24:25.707Z,9.418225
2023-05-21T08:25:25.697Z,9.418234
2023-05-21T08:26:25.793Z,9.418267
2023-05-21T08:27:25.855Z,9.418349
2023-05-21T08:28:25.684Z,9.418418
2023-05-21T08:29:25.674Z,9.418419
2023-05-21T08:30:25.691Z,9.418383
2023-05-21T08:31:25.688Z,9.418201
2023-05-21T08:32:25.663Z,9.418352
2023-05-21T08:33:25.671Z,9.418255
2023-05-21T08:34:25.639Z,9.418283
2023-05-21T08:35:25.634Z,9.418296
2023-05-21T08:36:25.625Z,9.418265
2023-05-21T08:37:25.618Z,9.418295
2023-05-21T08:38:26.989Z,9.418249
2023-05-21T08:39:25.614Z,9.418247
2023-05-21T08:40:25.588Z,9.418286
2023-05-21T08:41:25.589Z,9.418262
2023-05-21T08:42:36.335Z,9.418203
2023-05-21T08:43:27.599Z,9.418227
2023-05-21T08:44:25.580Z,9.418281
2023-05-21T08:45:25.575Z,9.418196
2023-05-21T08:46:25.635Z,9.418318
2023-05-21T08:47:25.578Z,9.418245
2023-05-21T08:48:25.566Z,9.418174
2023-05-21T08:49:27.163Z,9.418112
2023-05-21T08:50:26.547Z,9.418170
2023-05-21T08:51:25.545Z,9.418206
2023-05-21T08:52:25.524Z,9.418194
2023-05-21T08:53:28.729Z,9.418227
2023-05-21T08:54:26.510Z,9.418210
2023-05-21T08:55:25.515Z,9.418331
2023-05-21T08:56:25.503Z,9.418222
2023-05-21T08:57:25.510Z,9.418232
2023-05-21T08:58:25.501Z,9.418139
2023-05-21T08:59:25.489Z,9.418083
2023-05-21T09:00:25.494Z,9.418093
2023-05-21T09:01:26.651Z,9.418146
2023-05-21T09:02:26.536Z,9.418147
2023-05-21T09:03:25.518Z,9.418194
2023-05-21T09:04:25.498Z,9.418167
2023-05-21T09:05:25.449Z,9.418154
2023-05-21T09:06:25.426Z,9.418183
2023-05-21T09:07:25.426Z,9.418369
2023-05-21T09:08:25.425Z,9.418381
2023-05-21T09:09:25.418Z,9.418302
2023-05-21T09:10:25.412Z,9.418177
2023-05-21T09:11:25.405Z,9.418191
2023-05-21T09:12:25.412Z,9.418324
2023-05-21T09:13:25.400Z,9.418237
2023-05-21T09:14:25.509Z,9.418297
2023-05-21T09:15:25.424Z,9.418278
2023-05-21T09:16:25.447Z,9.418221
2023-05-21T09:17:25.440Z,9.418245
2023-05-21T09:18:25.366Z,9.418235
2023-05-21T09:19:25.410Z,9.418211
2023-05-21T09:20:25.378Z,9.418213
2023-05-21T09:21:25.360Z,9.418170
2023-05-21T09:22:25.329Z,9.418181
2023-05-21T09:23:25.340Z,9.418233
2023-05-21T09:24:25.342Z,9.418246
2023-05-21T09:25:25.352Z,9.418192
2023-05-21T09:26:25.329Z,9.418169
2023-05-21T09:27:25.301Z,9.418239
2023-05-21T09:28:25.300Z,9.418197
2023-05-21T09:29:25.292Z,9.418180
2023-05-21T09:30:35.714Z,9.418210
2023-05-21T09:31:27.418Z,9.418175
2023-05-21T09:32:25.312Z,9.418173
2023-05-21T09:33:25.259Z,9.418203
2023-05-21T09:34:25.290Z,9.418267
2023-05-21T09:35:25.256Z,9.418276
2023-05-21T09:36:25.253Z,9.418123
2023-05-21T09:37:27.639Z,9.418196
2023-05-21T09:38:26.259Z,9.418245
2023-05-21T09:39:25.240Z,9.418195
2023-05-21T09:40:25.246Z,9.418299
2023-05-21T09:41:25.241Z,9.418233
2023-05-21T09:42:25.210Z,9.418254
2023-05-21T09:43:25.210Z,9.418293
2023-05-21T09:44:25.209Z,9.418362
2023-05-21T09:45:25.485Z,9.418354
2023-05-21T09:46:25.204Z,9.418314
2023-05-21T09:47:25.206Z,9.418565
2023-05-21T09:48:25.189Z,9.418414
2023-05-21T09:49:25.237Z,9.418323
2023-05-21T09:50:25.172Z,9.418318
2023-05-21T09:51:25.164Z,9.418302
2023-05-21T09:52:25.150Z,9.418207
2023-05-21T09:53:25.174Z,9.418144
2023-05-21T09:54:25.170Z,9.418208
2023-05-21T09:55:25.141Z,9.418317
2023-05-21T09:56:25.125Z,9.418242
2023-05-21T09:57:25.959Z,9.418239
2023-05-21T09:58:25.123Z,9.418251
2023-05-21T09:59:25.147Z,9.418249
2023-05-21T10:00:25.124Z,9.418328
2023-05-21T10:01:25.222Z,9.418352
2023-05-21T10:02:25.118Z,9.418329
2023-05-21T10:03:25.098Z,9.418243
2023-05-21T10:05:25.088Z,9.418254
2023-05-21T10:06:25.071Z,9.418225
2023-05-21T10:07:25.068Z,9.418237
2023-05-21T10:08:25.062Z,9.418282
2023-05-21T10:09:25.084Z,9.418233
2023-05-21T10:10:25.088Z,9.418155
2023-05-21T10:11:25.036Z,9.418263
2023-05-21T10:12:25.031Z,9.418179
2023-05-21T10:13:25.038Z,9.418275
2023-05-21T10:14:25.043Z,9.418373
2023-05-21T10:15:25.024Z,9.418474
2023-05-21T10:16:25.042Z,9.418330
2023-05-21T10:17:25.040Z,9.418368
2023-05-21T10:18:24.989Z,9.418369
2023-05-21T10:19:25.762Z,9.418294
2023-05-21T10:20:24.999Z,9.418287
2023-05-21T10:21:24.984Z,9.418313
2023-05-21T10:22:24.968Z,9.418266
2023-05-21T10:23:24.956Z,9.418212
2023-05-21T10:24:24.961Z,9.418245
2023-05-21T10:25:24.979Z,9.418273
2023-05-21T10:26:24.945Z,9.418309
2023-05-21T10:27:24.944Z,9.418314
2023-05-21T10:28:24.924Z,9.418141
2023-05-21T10:29:24.925Z,9.418240
2023-05-21T10:30:24.919Z,9.418194
2023-05-21T10:31:25.272Z,9.418286
2023-05-21T10:32:25.021Z,9.418372
2023-05-21T10:33:24.958Z,9.418285
2023-05-21T10:34:24.891Z,9.418298
2023-05-21T10:35:24.900Z,9.418245
2023-05-21T10:36:24.885Z,9.418244
2023-05-21T10:37:24.870Z,9.418208
2023-05-21T10:38:24.903Z,9.418233
2023-05-21T10:39:24.863Z,9.418209
2023-05-21T10:40:24.852Z,9.418242
2023-05-21T10:41:24.885Z,9.418242
2023-05-21T10:42:24.862Z,9.418246
2023-05-21T10:43:24.847Z,9.418339
2023-05-21T10:44:24.850Z,9.418324
2023-05-21T10:45:24.843Z,9.418350
2023-05-21T10:46:24.853Z,9.418343
2023-05-21T10:47:24.824Z,9.418364
2023-05-21T10:48:24.818Z,9.418282
2023-05-21T10:49:24.815Z,9.418302
2023-05-21T10:50:24.796Z,9.418307
2023-05-21T10:51:24.799Z,9.418277
2023-05-21T10:52:24.802Z,9.418291
2023-05-21T10:53:24.797Z,9.418285
2023-05-21T10:54:24.794Z,9.418250
2023-05-21T10:55:24.768Z,9.418279
2023-05-21T10:56:24.771Z,9.418284
2023-05-21T10:57:24.759Z,9.418316
2023-05-21T10:58:24.753Z,9.418340
2023-05-21T10:59:24.770Z,9.418222
2023-05-21T11:00:24.737Z,9.418220
2023-05-21T11:01:24.827Z,9.418226
2023-05-21T11:02:24.766Z,9.418248
2023-05-21T11:03:24.939Z,9.418244
2023-05-21T11:04:24.725Z,9.418268
2023-05-21T11:05:24.695Z,9.418273
2023-05-21T11:06:24.716Z,9.418255
2023-05-21T11:07:24.738Z,9.418274
2023-05-21T11:08:24.683Z,9.418268
2023-05-21T11:09:24.683Z,9.418282
2023-05-21T11:10:24.693Z,9.418276
2023-05-21T11:11:24.667Z,9.418268
2023-05-21T11:12:24.663Z,9.418271
2023-05-21T11:13:24.680Z,9.418275
2023-05-21T11:14:24.656Z,9.418313
2023-05-21T11:15:24.730Z,9.418273
2023-05-21T11:16:24.689Z,9.418266
2023-05-21T11:17:24.650Z,9.418292
2023-05-21T11:18:24.616Z,9.418240
2023-05-21T11:19:24.643Z,9.418288
2023-05-21T11:20:24.623Z,9.418262
2023-05-21T11:21:24.600Z,9.418304
2023-05-21T11:22:24.615Z,9.418306
2023-05-21T11:23:24.591Z,9.418268
2023-05-21T11:24:24.579Z,9.418278
2023-05-21T11:25:24.584Z,9.418350
2023-05-21T11:26:24.571Z,9.418366
2023-05-21T11:27:24.559Z,9.418277
2023-05-21T11:28:24.554Z,9.418362
2023-05-21T11:29:24.558Z,9.418324
2023-05-21T11:30:24.555Z,9.418262
2023-05-21T11:31:24.577Z,9.418315
2023-05-21T11:32:24.551Z,9.418275
2023-05-21T11:33:24.532Z,9.418272
2023-05-21T11:34:24.531Z,9.418265
2023-05-21T11:35:24.518Z,9.418261
2023-05-21T11:36:24.539Z,9.418243
2023-05-21T11:37:24.515Z,9.418245
2023-05-21T11:38:24.495Z,9.418262
2023-05-21T11:39:24.492Z,9.418198
2023-05-21T11:40:24.489Z,9.418284
2023-05-21T11:41:24.483Z,9.418267
2023-05-21T11:42:24.476Z,9.418227
2023-05-21T11:43:24.471Z,9.418296
2023-05-21T11:44:24.463Z,9.418330
2023-05-21T11:45:24.481Z,9.418369
2023-05-21T11:46:24.497Z,9.418404